Painted Post, NY (14870)

8:21 AM EDT on May 26, 2017 (GMT -0400)
Carey Family WS | | Change Station

Elev 942 ft 42.15 °N, 77.07 °W | Updated 10 seconds ago

Overcast
Overcast
60.4 °F
Feels Like 60.4 °F
N
5.4
Wind Variable Wind from NW
Gusts 11.4 mph

Today
High -- | Low -- °F
--% Chance of Precip.
Yesterday
High -- | Low -- °F
Precip. -- in
Pressure 29.61 in
Visibility 10.0 miles
Clouds Mostly Cloudy 2000 ft
Overcast 2600 ft
Dew Point 52 °F
Humidity 74%
Rainfall 0.00 in
Snow Depth Not available.
5:38 AM 8:33 PM
New Moon, 1% visible
METAR KELM 261153Z 26003KT 10SM BKN020 OVC026 16/12 A2962 RMK AO2 SLP026 70043 T01560117 10156 20139 53016
Pressure 29.61 in
Visibility 10.0 miles
Clouds Mostly Cloudy 2000 ft
Overcast 2600 ft
Dew Point 52 °F
Humidity 74%
Rainfall 0.00 in
Snow Depth Not available.
5:38 AM 8:33 PM
New Moon, 1% visible
METAR KELM 261153Z 26003KT 10SM BKN020 OVC026 16/12 A2962 RMK AO2 SLP026 70043 T01560117 10156 20139 53016

Get Severe Weather Alerts

Thanks for signing up!

Be on the lookout for a verification email in your inbox.

You'll start receiving the daily forecast at 6 AM.

×

10-Day Weather Forecast

Almanac

Astronomy

May. 26, 2017 Rise Set
Actual Time
Civil Twilight
Nautical Twilight
Astronomical Twilight
Moon
Length of Visible Light
Length of Day
Tomorrow will be .
, % of the Moon is Illuminated

Today's Extremes

State Highs State Lows

Community

WunderPhotos

Category 6

Welcome to Category 6. This is the collective home for Weather Underground's featured writeups by Dr. Jeff Masters (right), Bob Henson (left), Chris Burt, and other regular contributors.

Nearby

Air Quality

  Air Quality AQ Index Pollutant
Not available.

Snow Depth

Station Depth Elevation

Earthquake Activity

City Distance Mag. Time & Date
Minimum magnitude displayed is 2.5.

Coastal Water Temperatures

Place Temperature

Stations

Nearby Weather Stations

Station Location Temp. Windchill Dew Point Humidity Wind Precip. Elev Updated Type
                   

Watches & Warnings

There are currently no watches in effect.